Last 48 Hours

Top Stn/Summit - 11,053ft

15 Minute Data | America/Los_Angeles
as of 9/6/26 7:49 AM PDT
Date & Time Temp (°F) WindChill (°F) RH (%) Dew Pt (°F) Wet Bulb (°F) Wind Dir (°) Wind Spd (mph) Wind Gust (mph) Wind Gst Dir (°) Daily Min Temp (°F) Daily Max Temp (°F) Daily Max Wind (mph)
9/6/26 - 0745 36.7 23.1 51 20.4 31.1 SW | 223 30.2 39.8 SW | 218 32.5 37.2 47.6
9/6/26 - 0730 35.8 21.8 52 20.0 30.4 SW | 223 30.9 40.2 SW | 225 32.5 36.1 47.6
9/6/26 - 0715 35.4 20.9 52 19.7 30.1 SW | 224 31.1 43.5 SW | 228 32.5 35.8 47.6
9/6/26 - 0700 34.8 20.5 54 19.6 29.6 SW | 224 30.5 38.8 SW | 220 32.5 35.1 47.6
9/6/26 - 0645 34.7 20.1 52 18.8 29.4 SW | 220 31.8 41.1 SW | 219 32.5 35.0 47.6
9/6/26 - 0630 34.8 20.2 50 18.1 29.3 SW | 218 33.1 40.6 SW | 216 32.5 35.0 47.6
9/6/26 - 0615 34.5 19.9 50 17.9 29.1 SW | 218 32.1 40.4 SW | 215 32.5 35.0 47.6
9/6/26 - 0600 34.7 20.1 49 17.7 29.1 SW | 218 32.7 40.7 SW | 221 32.5 35.0 47.6
9/6/26 - 0545 34.3 19.4 52 18.4 29.0 SW | 219 33.4 41.6 SW | 222 32.5 35.0 47.6
9/6/26 - 0530 34.9 20.1 50 18.0 29.3 SW | 219 33.6 43.1 SW | 220 32.5 35.0 47.6
9/6/26 - 0515 34.7 20.1 51 18.4 29.3 SW | 220 32.8 40.7 SW | 222 32.5 34.9 47.6
9/6/26 - 0500 34.5 19.6 53 19.1 29.4 SW | 217 33.1 42.4 SW | 216 32.5 34.9 47.6
9/6/26 - 0445 34.3 19.5 54 19.4 29.3 SW | 217 32.5 41.4 SW | 219 32.5 34.9 47.6
9/6/26 - 0430 34.6 19.8 53 19.1 29.4 SW | 217 33.2 41.9 SW | 214 32.5 34.9 47.6
9/6/26 - 0415 34.4 19.6 55 19.8 29.5 SW | 216 32.6 41.0 SW | 223 32.5 34.9 47.6
9/6/26 - 0400 34.5 20.0 54 19.5 29.5 SW | 221 32.1 39.5 SW | 220 32.5 34.9 47.6
9/6/26 - 0345 34.3 19.6 56 20.4 29.6 SW | 221 32.0 41.0 SW | 218 32.5 34.6 47.6
9/6/26 - 0330 33.9 19.0 60 21.7 29.7 SW | 223 32.7 40.8 SW | 221 32.5 34.1 47.6
9/6/26 - 0315 33.7 18.5 63 22.6 29.8 SW | 221 33.7 41.6 SW | 222 32.5 33.8 47.6
9/6/26 - 0300 33.4 18.0 67 23.8 30.0 SW | 221 34.3 42.4 SW | 224 32.5 33.6 47.6
9/6/26 - 0245 33.4 18.1 70 24.7 30.2 SW | 220 33.4 42.2 SW | 219 32.5 33.6 47.6
9/6/26 - 0230 33.3 17.8 73 25.4 30.4 SW | 221 34.0 43.4 SW | 220 32.5 33.5 47.6
9/6/26 - 0215 33.2 17.5 74 25.8 30.4 SW | 214 35.2 44.2 SW | 218 32.5 33.4 47.6
9/6/26 - 0200 33.1 17.2 76 26.3 30.6 SSW | 195 35.8 44.7 S | 190 32.5 33.3 47.6
9/6/26 - 0145 33.0 16.9 78 26.8 30.7 S | 178 36.9 47.0 SW | 221 32.5 33.3 47.6
9/6/26 - 0130 32.6 16.4 81 27.4 30.7 SSW | 194 36.9 46.4 SW | 228 32.5 32.8 47.6
9/6/26 - 0115 32.6 16.2 83 28.0 30.8 SW | 216 37.9 47.6 SW | 217 32.5 32.8 47.6
9/6/26 - 0100 32.7 16.6 83 28.1 31.0 SW | 222 36.6 46.3 SW | 217 30.0 45.1 53.8
9/6/26 - 0045 32.7 16.7 83 28.0 30.9 SW | 222 35.6 46.3 SW | 224 30.0 45.1 53.8
9/6/26 - 0030 32.9 16.8 82 28.0 31.0 SW | 215 36.4 45.8 SW | 222 30.0 45.1 53.8
9/6/26 - 0015 33.1 16.9 81 28.0 31.1 SW | 218 37.4 48.2 NE | 40 30.0 45.1 53.8
9/6/26 - 0000 33.3 17.4 82 28.4 31.4 SW | 220 36.6 45.5 SW | 220 30.0 45.1 53.8
9/5/26 - 2345 33.3 17.5 83 28.8 31.6 SW | 220 36.1 46.3 SW | 220 30.0 45.1 53.8
9/5/26 - 2330 33.4 17.6 86 29.6 31.9 SW | 219 36.5 45.5 SW | 221 30.0 45.1 53.8
9/5/26 - 2315 33.4 17.6 89 30.5 32.2 SW | 221 36.2 45.8 SW | 218 30.0 45.1 53.8
9/5/26 - 2300 33.5 17.8 91 31.2 32.6 SW | 222 36.0 45.6 SW | 222 30.0 45.1 53.8
9/5/26 - 2245 33.8 18.2 91 31.4 32.8 SW | 223 35.6 45.5 SW | 224 30.0 45.1 53.8
9/5/26 - 2230 33.7 18.0 92 31.7 32.9 SW | 220 36.6 46.6 SW | 226 30.0 45.1 53.8
9/5/26 - 2215 33.7 17.8 95 32.3 33.1 S | 180 37.0 48.2 N | 0 30.0 45.1 53.8
9/5/26 - 2200 33.6 17.5 99 33.4 33.5 SSW | 198 38.7 48.4 SSW | 200 30.0 45.1 53.8
9/5/26 - 2145 33.6 17.5 100 33.6 33.6 N | 0 38.8 48.2 N | 0 30.0 45.1 53.8
9/5/26 - 2130 33.9 18.2 100 33.9 33.9 N | 8 37.7 46.4 N | 1 30.0 45.1 53.8
9/5/26 - 2115 34.1 18.5 100 34.1 34.1 NE | 40 35.8 46.9 NNE | 21 30.0 45.1 53.8
9/5/26 - 2100 34.3 18.9 100 34.3 34.3 NNE | 17 36.4 44.9 NNE | 30 30.0 45.1 53.8
9/5/26 - 2045 34.4 18.9 100 34.3 34.4 NE | 38 37.4 46.6 NNE | 32 30.0 45.1 53.8
9/5/26 - 2030 34.7 19.3 98 34.2 34.5 N | 5 37.0 46.4 N | 0 30.0 45.1 53.8
9/5/26 - 2015 35.0 19.8 96 34.0 34.6 NNW | 338 36.2 46.4 N | 9 30.0 45.1 53.8
9/5/26 - 2000 35.4 20.4 94 33.9 34.8 NNE | 12 36.4 45.4 SW | 216 30.0 45.1 53.8
9/5/26 - 1945 35.9 20.9 92 33.7 35.0 NNW | 344 37.4 48.2 N | 0 30.0 45.1 53.8
9/5/26 - 1930 36.7 22.3 90 34.0 35.6 SW | 216 35.9 46.1 S | 175 30.0 45.1 53.8
9/5/26 - 1915 37.5 23.0 88 34.2 36.2 N | 7 37.4 49.8 N | 0 30.0 45.1 53.8
9/5/26 - 1900 38.1 24.0 87 34.4 36.6 WSW | 244 36.3 48.7 N | 0 30.0 45.1 53.8
9/5/26 - 1845 38.7 24.9 86 34.8 37.1 S | 190 33.9 49.2 N | 359 30.0 45.1 53.8
9/5/26 - 1830 39.3 25.4 84 35.1 37.6 NE | 37 38.2 50.9 N | 0 30.0 45.1 53.8
9/5/26 - 1815 39.8 25.9 84 35.3 38.0 NNE | 16 38.4 52.8 N | 1 30.0 45.1 53.8
9/5/26 - 1800 40.0 26.3 84 35.7 38.2 NNE | 13 37.2 53.4 SE | 145 30.0 45.1 53.8
9/5/26 - 1745 40.0 26.7 84 35.6 38.2 NNE | 32 35.5 48.3 SSE | 161 30.0 45.1 53.8
9/5/26 - 1730 40.3 27.0 84 35.8 38.5 ESE | 113 35.9 50.8 N | 0 30.0 45.1 53.8
9/5/26 - 1715 40.6 27.4 83 36.0 38.7 NNE | 22 35.2 51.6 WNW | 291 30.0 45.1 53.8
9/5/26 - 1700 40.4 27.1 85 36.3 38.7 N | 7 35.1 50.0 E | 92 30.0 45.1 53.8
9/5/26 - 1645 40.8 27.8 84 36.2 39.0 NNE | 32 35.5 49.8 NE | 53 30.0 45.1 53.8
9/5/26 - 1630 41.5 28.4 81 36.1 39.3 NNE | 22 37.2 53.2 N | 0 30.0 45.1 53.8
9/5/26 - 1615 42.2 29.5 77 35.7 39.5 S | 181 35.8 53.8 NNE | 16 30.0 45.1 53.8
9/5/26 - 1600 42.8 30.7 75 35.4 39.7 SW | 225 32.9 47.8 N | 0 30.0 45.1 52.4
9/5/26 - 1545 43.1 31.3 73 35.0 39.7 SSW | 211 31.9 46.7 N | 3 30.0 45.1 52.4
9/5/26 - 1530 43.2 31.3 72 34.7 39.6 SSW | 210 33.8 47.6 E | 96 30.0 45.1 52.4
9/5/26 - 1515 43.2 30.9 72 34.6 39.6 WSW | 258 34.5 52.4 NNE | 18 30.0 45.1 52.4
9/5/26 - 1500 43.9 32.2 69 34.4 39.8 SSW | 212 33.3 49.2 SSE | 160 30.0 45.1 50.5
9/5/26 - 1445 44.0 32.1 69 34.4 39.9 WSW | 242 37.1 50.1 SE | 127 30.0 45.1 50.5
9/5/26 - 1430 43.7 31.9 68 33.8 39.5 SW | 222 34.2 48.9 ESE | 112 30.0 45.1 50.5
9/5/26 - 1415 44.1 32.4 67 33.8 39.7 SW | 223 33.3 50.5 SSW | 204 30.0 45.1 50.5
9/5/26 - 1400 44.2 32.8 67 34.1 39.9 SW | 225 32.0 46.0 N | 4 30.0 45.1 46.0
9/5/26 - 1345 44.0 33.0 69 34.4 39.9 SW | 220 30.6 42.3 SW | 227 30.0 45.1 44.0
9/5/26 - 1330 43.9 32.9 69 34.3 39.8 SW | 222 31.1 40.4 NE | 46 30.0 45.1 44.0
9/5/26 - 1315 43.7 32.4 69 34.0 39.6 SW | 218 31.1 43.8 SSW | 212 30.0 45.1 44.0
9/5/26 - 1300 43.9 32.8 66 33.3 39.4 SW | 222 29.6 44.0 N | 7 30.0 45.1 44.0
9/5/26 - 1245 43.9 33.1 65 32.9 39.3 SW | 219 28.4 40.6 SW | 218 30.0 45.1 42.3
9/5/26 - 1230 43.7 32.9 64 32.2 38.9 SW | 221 28.0 40.4 NNE | 12 30.0 45.1 42.3
9/5/26 - 1215 44.6 33.8 61 31.8 39.2 SW | 217 30.3 42.3 SW | 225 30.0 45.1 42.3
9/5/26 - 1200 43.8 33.2 57 29.7 38.0 SW | 220 28.2 37.2 SSW | 209 30.0 44.3 42.2
9/5/26 - 1145 43.7 32.8 58 29.7 38.0 SW | 214 28.9 40.5 SSW | 212 30.0 44.2 42.2
9/5/26 - 1130 42.6 31.7 59 29.4 37.3 SW | 216 28.0 36.3 SW | 226 30.0 43.8 42.2
9/5/26 - 1115 42.3 31.5 57 28.3 36.7 SW | 216 25.9 35.2 SSW | 209 30.0 42.5 42.2
9/5/26 - 1100 41.8 30.8 58 28.1 36.4 SSW | 213 26.5 34.4 SSW | 212 30.0 42.2 42.2
9/5/26 - 1045 40.5 29.3 60 27.6 35.5 SSW | 213 25.3 32.7 SW | 220 30.0 41.2 42.2
9/5/26 - 1030 39.9 28.4 60 27.0 34.9 SW | 222 25.2 33.3 SW | 218 30.0 40.4 42.2
9/5/26 - 1015 38.8 26.8 61 26.5 34.1 SSW | 209 25.5 35.1 SSW | 212 30.0 39.2 42.2
9/5/26 - 1000 38.0 25.8 61 25.8 33.4 SW | 218 25.8 33.7 E | 81 30.0 38.6 42.2
9/5/26 - 0945 37.2 25.3 62 25.2 32.8 SW | 217 23.2 30.3 SW | 218 30.0 37.7 42.2
9/5/26 - 0930 36.5 24.2 63 25.0 32.3 SW | 231 24.5 30.7 SSW | 207 30.0 37.0 42.2
9/5/26 - 0915 35.6 22.7 64 24.8 31.7 WNW | 285 25.1 32.6 SSW | 212 30.0 35.9 42.2
9/5/26 - 0900 35.4 22.3 65 24.8 31.5 WNW | 297 26.0 33.2 N | 0 30.0 35.9 42.2
9/5/26 - 0845 34.9 21.3 66 24.7 31.2 NNW | 340 27.8 35.8 NE | 50 30.0 35.6 42.2
9/5/26 - 0830 34.7 21.0 65 24.2 30.9 ENE | 72 27.8 34.9 ENE | 63 30.0 35.1 42.2
9/5/26 - 0815 33.6 19.4 68 24.1 30.2 ENE | 72 27.6 36.2 E | 81 30.0 34.0 42.2
9/5/26 - 0800 33.7 19.7 68 24.3 30.4 ESE | 118 27.5 35.1 ENE | 63 30.0 34.0 42.2
9/5/26 - 0745 33.0 18.8 72 25.0 30.1 ESE | 122 27.5 34.4 ESE | 102 30.0 33.8 42.2
9/5/26 - 0730 31.9 17.2 77 25.4 29.5 ESE | 108 27.2 35.4 ESE | 117 30.0 33.8 42.2
9/5/26 - 0715 31.4 16.1 80 25.8 29.3 SE | 126 29.6 36.8 SW | 214 30.0 33.8 42.2
9/5/26 - 0700 30.6 15.0 83 26.1 28.9 ESE | 122 29.7 37.3 ENE | 66 30.0 33.8 42.2
9/5/26 - 0645 30.3 14.5 85 26.4 28.8 SE | 125 30.2 38.0 ESE | 111 30.0 33.8 42.2
9/5/26 - 0630 30.2 14.4 87 26.7 28.9 SE | 129 30.3 38.1 ESE | 110 30.0 33.8 42.2
9/5/26 - 0615 30.4 14.4 86 26.7 29.0 ESE | 123 30.2 39.7 ESE | 106 30.0 33.8 42.2
9/5/26 - 0600 30.4 14.6 88 27.2 29.1 ESE | 123 30.5 37.3 ESE | 109 30.0 33.8 42.2
9/5/26 - 0545 30.4 14.4 89 27.5 29.3 SE | 125 30.9 39.1 ESE | 109 30.0 33.8 42.2
9/5/26 - 0530 30.5 14.5 91 28.2 29.6 ESE | 123 31.9 40.0 ESE | 110 30.0 33.8 42.2
9/5/26 - 0515 30.2 14.2 98 29.8 29.9 ESE | 118 31.5 38.1 ESE | 108 30.0 33.8 42.2
9/5/26 - 0500 30.1 14.0 100 30.1 30.0 ESE | 110 32.2 38.9 ESE | 109 30.0 33.8 42.2
9/5/26 - 0445 30.1 14.4 100 30.1 30.0 ESE | 117 30.4 36.4 ESE | 109 30.0 33.8 42.2
9/5/26 - 0430 30.2 14.2 100 30.2 30.0 ESE | 109 30.9 38.5 ESE | 108 30.1 33.8 42.2
9/5/26 - 0415 30.2 14.2 100 30.2 30.1 ESE | 109 31.2 38.7 ESE | 109 30.2 33.8 42.2
9/5/26 - 0400 30.4 14.6 100 30.4 30.3 E | 97 30.4 37.4 ESE | 109 30.3 33.8 42.2
9/5/26 - 0345 30.4 14.9 100 30.4 30.3 NE | 41 29.1 36.0 N | 2 30.3 33.8 42.2
9/5/26 - 0330 30.8 15.2 100 30.8 30.7 NE | 52 29.8 37.4 NNE | 25 30.5 33.8 42.2
9/5/26 - 0315 31.4 15.8 100 31.4 31.3 NE | 53 31.8 38.7 NE | 34 31.1 33.8 42.2
9/5/26 - 0300 31.8 16.3 100 31.8 31.7 NNE | 24 31.7 38.8 N | 1 31.4 33.8 42.2
9/5/26 - 0245 32.3 17.1 100 32.3 32.2 NNE | 28 31.0 38.4 NNE | 15 32.0 33.8 42.2
9/5/26 - 0230 32.4 17.5 100 32.4 32.4 N | 11 30.0 36.9 NNE | 30 32.3 33.8 42.2
9/5/26 - 0215 32.6 17.3 100 32.6 32.5 N | 3 31.0 40.2 N | 2 32.4 33.8 42.2
9/5/26 - 0200 33.1 18.2 100 33.1 33.0 N | 1 30.0 38.9 N | 1 32.8 33.8 42.2
9/5/26 - 0145 33.5 18.9 100 33.5 33.5 N | 3 30.0 38.0 N | 1 33.1 33.8 42.2
9/5/26 - 0130 33.5 18.6 100 33.5 33.4 N | 1 30.8 40.1 N | 0 33.1 33.8 42.2
9/5/26 - 0115 33.3 18.1 100 33.3 33.3 N | 1 32.1 42.2 N | 1 33.1 33.5 42.2
9/5/26 - 0100 33.6 18.4 100 33.6 33.5 N | 1 32.1 42.9 N | 0 30.8 40.8 56.1
9/5/26 - 0045 33.5 18.2 100 33.5 33.5 N | 2 32.8 42.5 N | 0 30.8 40.8 56.1
9/5/26 - 0030 33.5 18.1 100 33.5 33.5 N | 0 34.2 43.5 N | 0 30.8 40.8 56.1
9/5/26 - 0015 33.5 18.0 100 33.5 33.5 N | 4 34.0 44.8 N | 3 30.8 40.8 56.1
9/5/26 - 0000 33.6 18.1 100 33.6 33.6 N | 0 34.3 44.3 N | 0 30.8 40.8 56.1
9/4/26 - 2345 33.7 18.2 100 33.7 33.6 N | 0 33.7 45.0 N | 0 30.8 40.8 56.1
9/4/26 - 2330 33.7 18.5 100 33.7 33.7 N | 4 33.2 43.1 N | 0 30.8 40.8 56.1
9/4/26 - 2315 33.7 18.4 100 33.7 33.7 N | 7 33.7 43.7 N | 0 30.8 40.8 56.1
9/4/26 - 2300 33.8 18.4 100 33.8 33.8 NNE | 21 34.6 44.6 N | 0 30.8 40.8 56.1
9/4/26 - 2245 33.9 18.7 100 33.9 33.9 N | 7 34.1 42.7 NE | 50 30.8 40.8 56.1
9/4/26 - 2230 34.1 18.7 100 34.1 34.0 N | 10 34.8 44.4 N | 0 30.8 40.8 56.1
9/4/26 - 2215 34.3 19.0 100 34.3 34.3 NNE | 17 35.6 44.4 NNE | 25 30.8 40.8 56.1
9/4/26 - 2200 34.4 18.8 100 34.4 34.4 N | 10 37.0 47.0 N | 9 30.8 40.8 56.1
9/4/26 - 2145 34.6 19.1 100 34.6 34.6 N | 4 36.7 48.1 N | 0 30.8 40.8 56.1
9/4/26 - 2130 35.0 19.9 100 35.0 35.0 N | 0 35.9 45.6 N | 0 30.8 40.8 56.1
9/4/26 - 2115 35.3 20.4 100 35.3 35.3 N | 6 34.0 45.6 N | 0 30.8 40.8 56.1
9/4/26 - 2100 35.4 20.4 100 35.4 35.5 N | 2 34.8 47.5 N | 0 30.8 40.8 56.1
9/4/26 - 2045 35.4 20.5 100 35.4 35.4 N | 9 34.0 46.5 N | 0 30.8 40.8 56.1
9/4/26 - 2030 35.6 20.9 100 35.6 35.6 N | 1 33.6 44.6 N | 0 30.8 40.8 56.1
9/4/26 - 2015 35.8 21.4 100 35.8 35.9 N | 2 32.2 45.1 N | 0 30.8 40.8 56.1
9/4/26 - 2000 36.1 22.0 100 36.1 36.2 N | 0 30.9 43.0 N | 0 30.8 40.8 56.1
9/4/26 - 1945 36.5 22.5 100 36.5 36.6 N | 5 31.0 43.7 N | 0 30.8 40.8 56.1
9/4/26 - 1930 36.5 22.3 100 36.5 36.6 N | 4 32.7 44.0 N | 0 30.8 40.8 56.1
9/4/26 - 1915 36.7 22.8 100 36.7 36.8 N | 4 32.2 42.6 N | 0 30.8 40.8 56.1
9/4/26 - 1900 37.0 23.3 100 37.0 37.1 N | 0 30.9 42.3 N | 0 30.8 40.8 56.1
9/4/26 - 1845 37.1 23.2 100 37.1 37.2 N | 2 31.3 44.6 N | 0 30.8 40.8 56.1
9/4/26 - 1830 37.2 23.4 100 37.2 37.3 N | 3 32.4 43.2 N | 0 30.8 40.8 56.1
9/4/26 - 1815 37.3 23.4 100 37.3 37.4 N | 4 33.1 45.3 N | 0 30.8 40.8 56.1
9/4/26 - 1800 37.3 23.4 100 37.3 37.4 W | 261 32.4 44.7 N | 0 30.8 40.8 56.1
9/4/26 - 1745 37.5 23.5 100 37.4 37.6 SW | 224 33.2 46.5 N | 0 30.8 40.8 56.1
9/4/26 - 1730 37.7 23.4 99 37.4 37.7 NNE | 23 35.7 48.7 N | 5 30.8 40.8 56.1
9/4/26 - 1715 37.9 24.2 98 37.4 37.8 SW | 218 32.6 46.4 E | 90 30.8 40.8 56.1
9/4/26 - 1700 38.4 24.8 97 37.5 38.1 SSW | 194 33.4 44.9 S | 182 30.8 40.8 56.1
9/4/26 - 1645 38.5 25.3 94 37.1 38.0 SW | 220 31.2 43.7 S | 184 30.8 40.8 56.1
9/4/26 - 1630 39.0 26.2 93 37.1 38.3 SW | 222 29.0 42.4 SW | 224 30.8 40.8 56.1
9/4/26 - 1615 39.4 26.1 92 37.2 38.6 SW | 220 33.7 46.8 N | 2 30.8 40.8 56.1
9/4/26 - 1600 39.2 26.0 92 37.0 38.4 SW | 228 33.8 44.8 SW | 226 30.8 40.8 56.1
9/4/26 - 1545 39.5 26.6 88 36.3 38.2 SSW | 200 30.4 44.6 SE | 131 30.8 40.8 56.1
9/4/26 - 1530 39.8 26.5 86 36.0 38.3 WSW | 252 34.4 48.0 N | 0 30.8 40.8 56.1
9/4/26 - 1515 40.1 27.4 84 35.7 38.3 SW | 228 29.6 45.8 SW | 218 30.8 40.8 56.1
9/4/26 - 1500 40.6 27.7 82 35.6 38.5 WSW | 247 34.9 45.9 N | 1 30.8 40.8 56.1
9/4/26 - 1445 40.3 27.0 83 35.5 38.4 WSW | 245 36.4 50.6 NNE | 17 30.8 40.8 56.1
9/4/26 - 1430 40.2 26.5 84 35.6 38.3 SW | 218 38.0 52.8 N | 0 30.8 40.8 56.1
9/4/26 - 1415 40.2 27.5 81 35.0 38.1 WSW | 242 28.2 48.3 ESE | 102 30.8 40.8 56.1
9/4/26 - 1400 40.2 26.8 80 34.5 37.8 NNW | 345 35.9 50.4 N | 0 30.8 40.8 56.1
9/4/26 - 1345 40.4 26.5 81 35.0 38.2 N | 11 39.5 55.9 N | 2 30.8 40.8 56.1
9/4/26 - 1330 40.0 26.4 82 35.1 38.0 SW | 235 37.4 51.8 N | 4 30.8 40.5 56.1
9/4/26 - 1315 39.7 26.4 83 35.0 37.8 NW | 317 34.7 48.0 E | 94 30.8 40.1 56.1
9/4/26 - 1300 39.7 25.9 85 35.6 38.0 N | 4 37.7 51.3 NNE | 12 30.8 40.0 56.1
9/4/26 - 1245 39.4 25.4 86 35.6 37.9 NNW | 332 38.8 52.5 N | 0 30.8 39.6 56.1
9/4/26 - 1230 39.1 25.2 86 35.4 37.6 SW | 217 37.6 50.4 N | 0 30.8 39.5 56.1
9/4/26 - 1215 38.8 24.8 86 35.0 37.2 SSW | 206 36.9 50.4 N | 0 30.8 39.3 56.1
9/4/26 - 1200 38.6 24.5 86 34.9 37.1 SW | 222 36.9 49.1 SSW | 202 30.8 39.2 56.1
9/4/26 - 1145 38.3 24.3 87 34.8 36.9 NNW | 335 35.7 48.6 N | 0 30.8 38.7 56.1
9/4/26 - 1130 37.6 23.1 91 35.2 36.6 SW | 227 35.4 50.9 N | 3 30.8 38.4 56.1
9/4/26 - 1115 36.3 21.5 100 36.3 36.4 SW | 227 35.5 48.2 SW | 227 30.8 37.0 56.1
9/4/26 - 1100 36.1 21.4 100 36.1 36.2 SW | 224 35.4 46.6 S | 177 30.8 36.5 56.1
9/4/26 - 1045 35.7 21.0 100 35.7 35.7 SW | 224 35.0 44.8 SW | 224 30.8 36.2 56.1
9/4/26 - 1030 34.9 19.7 100 34.9 34.9 SW | 223 36.2 45.5 SW | 215 30.8 35.2 56.1
9/4/26 - 1015 34.3 18.7 100 34.3 34.3 SW | 220 37.6 46.2 SW | 222 30.8 34.7 56.1
9/4/26 - 1000 33.8 17.6 100 33.8 33.8 SSW | 194 39.0 50.4 N | 2 30.8 34.0 56.1
9/4/26 - 0945 33.2 17.0 100 33.2 33.2 NNW | 340 38.2 48.1 N | 0 30.8 33.6 56.1
9/4/26 - 0930 32.5 15.9 100 32.5 32.4 ENE | 78 39.2 48.4 N | 0 30.8 32.9 56.1
9/4/26 - 0915 32.1 15.2 100 32.1 32.0 SE | 143 39.3 51.0 ENE | 69 30.8 32.3 56.1
9/4/26 - 0900 31.9 14.9 100 31.9 31.9 SW | 224 40.6 49.8 SSE | 164 30.8 32.1 56.1
9/4/26 - 0845 31.7 14.6 100 31.7 31.6 SW | 224 40.6 49.7 SW | 224 30.8 32.1 56.1
9/4/26 - 0830 31.5 14.4 100 31.5 31.5 SW | 224 40.2 49.3 SW | 226 30.8 32.1 56.1
9/4/26 - 0815 31.4 13.9 100 31.4 31.3 SW | 222 42.0 52.6 SW | 222 30.8 32.1 56.1
9/4/26 - 0800 31.4 14.0 100 31.4 31.3 SW | 222 41.6 51.1 SW | 224 30.8 32.1 56.1
9/4/26 - 0745 31.1 13.4 100 31.1 31.0 SW | 224 41.9 53.1 SW | 216 30.8 32.1 56.1
Max 44.6 33.8 100 37.5 39.9 - 42.0 55.9 - 33.1 45.1 56.1
Avg 36.1 21.7 84 31.1 34.2 - 33.4 44.1 - - - -
Min 30.1 13.4 49 17.7 28.8 - 23.2 30.3 - 30.0 32.1 42.2